Time;durP1;ratioP1;P1;durP2;ratioP2;P2;SDS_P1;SDS_P2;PMS_P1;PMS_P2;Temp;Humidity;BMP_temperature;BMP_pressure;BME280_temperature;BME280_humidity;BME280_pressure;Samples;Min_cycle;Max_cycle;Signal;HPM_P1;HPM_P2
2023/02/14 00:02:05;;;;;;;20.97;17.97;;;;;;;0.82;100.00;98932.94;5061538;28;20257;-66
2023/02/14 00:04:33;;;;;;;21.07;17.83;;;;;;;0.87;100.00;98945.75;5069518;28;20623;-67
2023/02/14 00:07:00;;;;;;;21.23;17.27;;;;;;;0.85;100.00;98947.59;5064544;28;20218;-66
2023/02/14 00:09:28;;;;;;;22.70;18.00;;;;;;;0.80;100.00;98942.63;5066331;28;20210;-67
2023/02/14 00:11:57;;;;;;;21.80;18.17;;;;;;;0.75;100.00;98941.16;5021273;28;20312;-66
2023/02/14 00:17:10;;;;;;;23.23;19.93;;;;;;;0.69;100.00;98937.09;5068492;28;20415;-66
2023/02/14 00:19:38;;;;;;;23.20;19.80;;;;;;;0.71;100.00;98935.25;5073623;28;20218;-64
2023/02/14 00:22:05;;;;;;;22.83;19.60;;;;;;;0.78;100.00;98931.41;5066721;28;20210;-66
2023/02/14 00:24:33;;;;;;;23.13;19.50;;;;;;;0.80;100.00;98934.78;5072693;28;20214;-67
2023/02/14 00:27:02;;;;;;;21.93;19.20;;;;;;;0.77;100.00;98932.34;5024865;28;20395;-66
2023/02/14 00:29:31;;;;;;;18.70;16.73;;;;;;;0.72;100.00;98922.13;5053598;28;20265;-66
2023/02/14 00:31:59;;;;;;;23.73;18.37;;;;;;;0.72;100.00;98937.78;5064029;28;20617;-67
2023/02/14 00:34:27;;;;;;;20.47;17.20;;;;;;;0.79;100.00;98933.09;5071792;28;20230;-66
2023/02/14 00:36:55;;;;;;;20.50;17.73;;;;;;;0.83;100.00;98937.22;5069621;28;20251;-65
2023/02/14 00:39:23;;;;;;;23.33;19.47;;;;;;;0.77;100.00;98942.78;5071416;28;20210;-65
2023/02/14 00:41:50;;;;;;;26.40;19.83;;;;;;;0.68;100.00;98935.41;5033936;28;20214;-63
2023/02/14 00:44:19;;;;;;;22.20;19.80;;;;;;;0.71;100.00;98940.47;5052327;28;20217;-66
2023/02/14 00:46:47;;;;;;;23.00;19.50;;;;;;;0.77;100.00;98944.56;5068748;28;20234;-63
2023/02/14 00:49:15;;;;;;;22.60;19.37;;;;;;;0.65;100.00;98936.41;5071545;28;20293;-66
2023/02/14 00:51:42;;;;;;;24.03;20.27;;;;;;;0.72;100.00;98940.38;5066737;28;20226;-64
2023/02/14 00:54:10;;;;;;;23.07;19.87;;;;;;;0.69;100.00;98944.94;5069740;28;20221;-63
2023/02/14 00:56:37;;;;;;;21.97;19.27;;;;;;;0.71;100.00;98951.75;5068485;28;20213;-64
2023/02/14 00:59:05;;;;;;;20.93;18.63;;;;;;;0.74;100.00;98953.38;5007814;28;21009;-66
2023/02/14 01:01:34;;;;;;;23.83;19.53;;;;;;;0.69;100.00;98952.75;5069038;28;20219;-65
2023/02/14 01:04:01;;;;;;;20.63;18.13;;;;;;;0.61;100.00;98947.09;5068503;28;20402;-64
2023/02/14 01:06:29;;;;;;;21.80;18.10;;;;;;;0.59;100.00;98959.38;5058438;28;20735;-66
2023/02/14 01:08:57;;;;;;;23.03;19.70;;;;;;;0.67;100.00;98952.00;5067609;28;20839;-65
2023/02/14 01:11:25;;;;;;;22.70;19.63;;;;;;;0.67;100.00;98954.59;5065871;28;20595;-65
2023/02/14 01:13:56;;;;;;;23.17;18.97;;;;;;;0.67;100.00;98958.03;5024019;28;20850;-65
2023/02/14 01:16:26;;;;;;;24.50;20.73;;;;;;;0.56;100.00;98962.97;5045950;28;20199;-66
2023/02/14 01:18:56;;;;;;;25.83;21.20;;;;;;;0.57;100.00;98952.47;5069442;28;20427;-65
2023/02/14 01:21:25;;;;;;;24.07;19.43;;;;;;;0.57;100.00;98949.84;5046455;28;20206;-65
2023/02/14 01:23:58;;;;;;;21.80;18.00;;;;;;;0.60;100.00;98954.06;5066001;28;20371;-66
2023/02/14 01:26:27;;;;;;;24.33;21.30;;;;;;;0.66;100.00;98948.53;5069781;28;20760;-64
2023/02/14 01:28:55;;;;;;;21.57;19.17;;;;;;;0.67;100.00;98954.59;5069635;28;20731;-65
2023/02/14 01:31:26;;;;;;;24.07;19.77;;;;;;;0.60;100.00;98958.44;5003797;28;20226;-67
2023/02/14 01:33:56;;;;;;;23.67;19.87;;;;;;;0.62;100.00;98951.38;5068843;28;20724;-66
2023/02/14 01:36:25;;;;;;;22.27;19.13;;;;;;;0.62;100.00;98952.22;5069521;28;20194;-66
2023/02/14 01:38:54;;;;;;;22.60;20.00;;;;;;;0.61;100.00;98960.13;5068664;28;20190;-66
2023/02/14 01:41:22;;;;;;;24.53;19.67;;;;;;;0.59;100.00;98956.75;5068818;28;20244;-67
2023/02/14 01:43:52;;;;;;;25.73;21.33;;;;;;;0.51;100.00;98954.53;5067762;28;20409;-67
2023/02/14 01:46:20;;;;;;;22.07;19.53;;;;;;;0.51;100.00;98949.31;5023095;28;20222;-66
2023/02/14 01:48:47;;;;;;;24.10;20.03;;;;;;;0.41;100.00;98934.13;5069236;28;20224;-65
2023/02/14 01:51:18;;;;;;;22.90;20.07;;;;;;;0.53;100.00;98939.66;5067998;28;20640;-64
2023/02/14 01:53:47;;;;;;;22.17;19.67;;;;;;;0.61;100.00;98944.47;5070582;28;20206;-65
2023/02/14 01:56:19;;;;;;;22.10;19.47;;;;;;;0.39;100.00;98937.72;5067207;28;20684;-65
2023/02/14 01:58:49;;;;;;;23.70;18.57;;;;;;;0.31;100.00;98938.09;5069184;28;20661;-64
2023/02/14 02:01:17;;;;;;;24.97;19.07;;;;;;;0.33;100.00;98946.69;5069830;28;20622;-66
2023/02/14 02:03:48;;;;;;;24.53;19.23;;;;;;;0.34;100.00;98939.72;5022409;28;20225;-65
2023/02/14 02:06:19;;;;;;;26.07;21.17;;;;;;;0.35;100.00;98939.63;5068765;28;20402;-65
2023/02/14 02:08:52;;;;;;;25.23;19.90;;;;;;;0.39;100.00;98929.91;5063566;28;20199;-65
2023/02/14 02:11:19;;;;;;;25.33;20.70;;;;;;;0.38;100.00;98936.91;5071112;28;20209;-66
2023/02/14 02:13:47;;;;;;;21.90;18.00;;;;;;;0.35;100.00;98923.16;5067777;28;20205;-65
2023/02/14 02:16:39;;;;;;;24.00;19.73;;;;;;;0.26;100.00;98930.50;5065304;28;20264;-64
2023/02/14 02:19:36;;;;;;;23.07;19.80;;;;;;;0.24;100.00;98923.69;5024017;28;20458;-65
2023/02/14 02:22:14;;;;;;;24.20;19.97;;;;;;;0.21;100.00;98924.69;5067410;28;20703;-67
2023/02/14 02:24:48;;;;;;;23.07;19.20;;;;;;;0.27;100.00;98923.53;5062345;28;20198;-65
2023/02/14 02:27:26;;;;;;;24.10;20.57;;;;;;;0.31;100.00;98924.22;5067417;28;20201;-66
2023/02/14 02:30:29;;;;;;;24.40;20.03;;;;;;;0.33;100.00;98927.59;5067947;28;20525;-65
2023/02/14 02:33:18;;;;;;;28.23;20.03;;;;;;;0.22;100.00;98925.50;5030274;28;20558;-68
2023/02/14 02:36:03;;;;;;;28.70;21.10;;;;;;;0.17;100.00;98917.91;5016825;28;20277;-65
2023/02/14 02:38:45;;;;;;;25.57;20.53;;;;;;;0.18;100.00;98927.41;5065501;28;20301;-64
2023/02/14 02:41:19;;;;;;;28.13;21.57;;;;;;;0.22;100.00;98922.91;5066007;28;20206;-65
2023/02/14 02:43:54;;;;;;;24.90;20.67;;;;;;;0.30;100.00;98919.94;5066419;28;20201;-64
2023/02/14 02:53:01;;;;;;;27.97;22.40;;;;;;;0.43;100.00;98928.81;5023414;28;20201;-65
2023/02/14 02:54:57;;;;;;;29.23;21.10;;;;;;;0.43;100.00;98931.44;5064666;28;20467;-66
2023/02/14 02:57:28;;;;;;;30.20;23.17;;;;;;;0.47;100.00;98932.13;5041428;28;20821;-63
2023/02/14 02:59:56;;;;;;;26.00;23.17;;;;;;;0.38;100.00;98931.69;5069846;28;20206;-65
2023/02/14 03:02:27;;;;;;;28.87;21.33;;;;;;;0.37;100.00;98937.78;5061099;28;20222;-63
2023/02/14 03:04:56;;;;;;;28.30;21.77;;;;;;;0.26;100.00;98927.91;5023568;28;20202;-66
2023/02/14 03:07:38;;;;;;;31.77;22.57;;;;;;;0.16;100.00;98925.81;5058241;28;20250;-64
2023/02/14 03:10:09;;;;;;;26.87;21.73;;;;;;;0.23;100.00;98919.38;5068080;28;20289;-66
2023/02/14 03:12:52;;;;;;;26.83;21.97;;;;;;;0.25;100.00;98917.53;5065978;28;20824;-65
2023/02/14 03:15:22;;;;;;;26.73;21.73;;;;;;;0.24;100.00;98916.72;5062042;28;20198;-64
2023/02/14 03:17:57;;;;;;;29.23;23.53;;;;;;;0.21;100.00;98924.69;5069545;28;20499;-66
2023/02/14 03:20:32;;;;;;;27.67;23.03;;;;;;;0.21;100.00;98922.09;5022952;28;20202;-63
2023/02/14 03:23:04;;;;;;;28.43;23.00;;;;;;;0.28;100.00;98925.22;5067418;28;20755;-66
2023/02/14 03:25:41;;;;;;;29.27;21.97;;;;;;;0.18;100.00;98919.59;5058010;28;20423;-66
2023/02/14 03:28:13;;;;;;;30.30;23.40;;;;;;;0.18;100.00;98922.19;5064666;28;20202;-63
2023/02/14 03:30:47;;;;;;;29.33;22.63;;;;;;;0.27;100.00;98920.91;5066586;28;20202;-66
2023/02/14 03:33:18;;;;;;;28.07;23.30;;;;;;;0.34;100.00;98924.06;5070734;28;20529;-64
2023/02/14 03:35:51;;;;;;;26.90;21.27;;;;;;;0.40;100.00;98921.16;5021136;28;20214;-64
2023/02/14 03:38:25;;;;;;;32.00;23.93;;;;;;;0.38;100.00;98930.81;5056918;28;20210;-64
2023/02/14 03:40:56;;;;;;;28.87;22.97;;;;;;;0.35;100.00;98918.75;5066015;28;20696;-66
2023/02/14 03:43:27;;;;;;;32.37;23.47;;;;;;;0.32;100.00;98918.91;5061998;28;20246;-64
2023/02/14 03:45:58;;;;;;;30.83;23.53;;;;;;;0.39;100.00;98922.94;5062827;28;20224;-64
2023/02/14 03:48:26;;;;;;;29.67;23.40;;;;;;;0.36;100.00;98927.44;5064429;28;20299;-64
2023/02/14 03:50:54;;;;;;;28.93;23.80;;;;;;;0.24;100.00;98918.47;5067946;28;20445;-63
2023/02/14 03:53:26;;;;;;;29.60;22.80;;;;;;;0.26;100.00;98927.91;5018559;28;20261;-64
2023/02/14 03:55:58;;;;;;;28.67;22.97;;;;;;;0.19;100.00;98923.91;5076639;28;20212;-65
2023/02/14 03:58:28;;;;;;;28.70;23.07;;;;;;;0.18;100.00;98937.84;5064704;28;20212;-64
2023/02/14 04:00:59;;;;;;;31.33;23.53;;;;;;;0.23;100.00;98941.09;5070302;28;20225;-65
2023/02/14 04:03:28;;;;;;;28.77;22.37;;;;;;;0.29;100.00;98937.31;5066291;28;20250;-66
2023/02/14 04:05:56;;;;;;;27.83;21.60;;;;;;;0.34;100.00;98939.72;5075627;28;20479;-63
2023/02/14 04:08:29;;;;;;;32.50;23.53;;;;;;;0.29;100.00;98932.09;5020342;28;20695;-64
2023/02/14 04:10:59;;;;;;;29.83;23.17;;;;;;;0.10;100.00;98935.63;5075853;28;20701;-64
2023/02/14 04:13:27;;;;;;;27.43;22.97;;;;;;;0.14;100.00;98931.09;5041041;28;20250;-65
2023/02/14 04:15:55;;;;;;;32.07;24.07;;;;;;;0.12;100.00;98928.59;5067590;28;20213;-63
2023/02/14 04:21:08;;;;;;;30.50;23.63;;;;;;;0.10;100.00;98938.25;5068267;28;20404;-63
2023/02/14 04:23:37;;;;;;;35.85;27.75;;;;;;;0.02;100.00;98944.72;5017694;28;20438;-65
2023/02/14 04:26:05;;;;;;;31.73;24.43;;;;;;;0.05;100.00;98940.22;5058501;28;20482;-65
2023/02/14 04:28:33;;;;;;;35.97;30.27;;;;;;;0.11;100.00;98924.28;5066314;28;20527;-66
2023/02/14 04:31:01;;;;;;;30.90;24.23;;;;;;;0.11;100.00;98928.63;5060922;28;20195;-64
2023/02/14 04:33:30;;;;;;;33.87;24.87;;;;;;;0.16;100.00;98926.66;5061670;28;20233;-65
2023/02/14 04:35:57;;;;;;;32.30;23.97;;;;;;;0.19;100.00;98921.31;5067020;28;20197;-63
2023/02/14 04:38:25;;;;;;;30.43;24.87;;;;;;;0.14;100.00;98913.72;5024860;28;20206;-64
2023/02/14 04:40:54;;;;;;;35.03;26.73;;;;;;;0.14;100.00;98915.44;5066947;28;20195;-63
2023/02/14 04:43:21;;;;;;;30.37;25.43;;;;;;;0.08;100.00;98900.97;5041883;28;20227;-64
2023/02/14 04:45:49;;;;;;;32.77;25.43;;;;;;;0.10;100.00;98921.75;5068896;28;20198;-63
2023/02/14 04:48:16;;;;;;;33.63;25.13;;;;;;;0.07;100.00;98914.06;5069184;28;20233;-63
2023/02/14 04:50:44;;;;;;;34.43;25.67;;;;;;;0.10;100.00;98908.72;5062550;28;20446;-67
2023/02/14 04:53:11;;;;;;;33.53;24.33;;;;;;;0.19;100.00;98910.03;5024355;28;20242;-65
2023/02/14 04:55:39;;;;;;;32.17;24.47;;;;;;;0.06;100.00;98908.03;5060274;28;20436;-66
2023/02/14 04:58:08;;;;;;;34.93;24.90;;;;;;;0.06;100.00;98913.25;5063526;28;20197;-68
2023/02/14 05:00:35;;;;;;;34.03;25.70;;;;;;;0.21;100.00;98916.88;5059374;28;20771;-67
2023/02/14 05:03:03;;;;;;;32.50;24.17;;;;;;;0.32;100.00;98912.88;5067894;28;20226;-67
2023/02/14 05:05:31;;;;;;;31.97;22.97;;;;;;;0.14;100.00;98908.50;5063003;28;20210;-67
2023/02/14 05:07:58;;;;;;;34.77;24.80;;;;;;;0.14;100.00;98907.63;5069732;28;20395;-68
2023/02/14 05:10:26;;;;;;;34.97;24.40;;;;;;;0.16;100.00;98911.00;5023596;28;20215;-65
2023/02/14 05:12:53;;;;;;;33.53;25.60;;;;;;;0.20;100.00;98904.75;5063361;28;20229;-65
2023/02/14 05:15:22;;;;;;;33.37;24.30;;;;;;;0.24;100.00;98898.47;5063316;28;20563;-65
2023/02/14 05:17:50;;;;;;;31.80;25.07;;;;;;;0.24;100.00;98903.69;5067853;28;20202;-67
2023/02/14 05:20:17;;;;;;;33.27;25.30;;;;;;;0.20;100.00;98907.34;5070388;28;20724;-64
2023/02/14 05:22:45;;;;;;;34.73;25.77;;;;;;;0.16;100.00;98904.97;5066415;28;20412;-67
2023/02/14 05:25:13;;;;;;;31.10;22.77;;;;;;;0.19;100.00;98904.81;5022376;28;20206;-64
2023/02/14 05:27:40;;;;;;;29.50;24.10;;;;;;;0.25;100.00;98907.97;5068718;28;20198;-66
2023/02/14 05:30:09;;;;;;;32.27;23.77;;;;;;;0.23;100.00;98904.59;5070387;28;20198;-64
2023/02/14 05:32:38;;;;;;;31.43;23.83;;;;;;;0.16;100.00;98903.19;5065276;28;20520;-65
2023/02/14 05:35:06;;;;;;;30.63;22.87;;;;;;;0.20;100.00;98898.69;5065886;28;20234;-63
2023/02/14 05:37:34;;;;;;;32.27;24.07;;;;;;;0.15;100.00;98898.91;5058798;28;20483;-67
2023/02/14 05:40:01;;;;;;;30.27;22.70;;;;;;;0.05;100.00;98901.13;5026213;28;20574;-66
2023/02/14 05:42:29;;;;;;;29.43;23.80;;;;;;;0.02;100.00;98906.50;5060733;28;20211;-65
2023/02/14 05:44:56;;;;;;;35.03;25.80;;;;;;;0.05;100.00;98901.13;5066512;28;20773;-66
2023/02/14 05:47:24;;;;;;;34.43;26.20;;;;;;;-0.12;100.00;98896.75;5062641;28;20205;-66
2023/02/14 05:49:53;;;;;;;32.73;24.57;;;;;;;-0.18;100.00;98915.28;5065123;28;20199;-66
2023/02/14 05:52:20;;;;;;;38.80;26.20;;;;;;;-0.16;100.00;98916.03;5065818;28;20236;-65
2023/02/14 05:54:48;;;;;;;32.13;24.07;;;;;;;-0.18;100.00;98912.66;5064418;28;20682;-66
2023/02/14 05:57:15;;;;;;;35.40;25.13;;;;;;;-0.15;100.00;98920.34;5025033;28;20301;-65
2023/02/14 05:59:43;;;;;;;36.23;24.93;;;;;;;-0.15;100.00;98928.97;5061067;28;20754;-64
2023/02/14 06:02:10;;;;;;;33.27;25.00;;;;;;;-0.18;100.00;98930.91;5065225;28;20230;-64
2023/02/14 06:04:38;;;;;;;35.70;26.63;;;;;;;-0.26;100.00;98935.63;5067105;28;20190;-69
2023/02/14 06:07:07;;;;;;;32.50;24.93;;;;;;;-0.15;100.00;98930.75;5069685;28;20608;-67
2023/02/14 06:09:35;;;;;;;33.83;25.13;;;;;;;-0.22;100.00;98932.81;5069106;28;20403;-66
2023/02/14 06:12:03;;;;;;;33.97;23.57;;;;;;;-0.22;100.00;98921.53;5023643;28;20247;-66
2023/02/14 06:14:30;;;;;;;34.97;24.70;;;;;;;-0.15;100.00;98931.59;5040515;28;20810;-66
2023/02/14 06:16:58;;;;;;;36.60;25.00;;;;;;;-0.13;100.00;98928.06;5069202;28;20207;-67
2023/02/14 06:19:25;;;;;;;36.90;24.10;;;;;;;-0.21;100.00;98925.81;5064515;28;20205;-64
2023/02/14 06:21:53;;;;;;;34.47;23.77;;;;;;;-0.11;100.00;98934.91;5070779;28;20602;-67
2023/02/14 06:24:22;;;;;;;32.23;24.43;;;;;;;-0.19;100.00;98939.63;5066766;28;20198;-63
2023/02/14 06:26:50;;;;;;;36.53;24.97;;;;;;;-0.08;100.00;98941.72;5071355;28;20237;-66
2023/02/14 06:29:18;;;;;;;32.47;24.20;;;;;;;-0.15;100.00;98928.97;5022935;28;20409;-64
2023/02/14 06:31:45;;;;;;;35.30;24.43;;;;;;;-0.08;100.00;98941.72;5060418;28;20886;-62
2023/02/14 06:34:13;;;;;;;36.43;23.30;;;;;;;-0.10;100.00;98935.72;5067349;28;20770;-65
2023/02/14 06:36:42;;;;;;;33.70;24.27;;;;;;;-0.17;100.00;98941.25;5065572;28;20410;-66
2023/02/14 06:39:10;;;;;;;37.33;26.00;;;;;;;-0.17;100.00;98941.25;5067042;28;20213;-65
2023/02/14 06:41:39;;;;;;;35.73;25.40;;;;;;;-0.24;100.00;98942.44;5064208;28;20359;-64
2023/02/14 06:44:07;;;;;;;33.80;24.83;;;;;;;-0.19;100.00;98940.47;5026591;28;20718;-66
2023/02/14 06:46:35;;;;;;;32.20;23.57;;;;;;;-0.21;100.00;98929.28;5063824;28;20681;-66
2023/02/14 06:49:02;;;;;;;36.30;24.43;;;;;;;-0.11;100.00;98931.44;5069776;28;20569;-65
2023/02/14 06:51:30;;;;;;;33.87;22.20;;;;;;;-0.24;100.00;98934.63;5062040;28;20233;-67
2023/02/14 06:53:57;;;;;;;29.30;21.53;;;;;;;-0.19;100.00;98930.06;5070920;28;20202;-67
2023/02/14 06:56:25;;;;;;;31.20;22.33;;;;;;;-0.19;100.00;98931.78;5063892;28;20210;-65
2023/02/14 06:58:54;;;;;;;32.03;22.73;;;;;;;-0.18;100.00;98931.75;5023552;28;20871;-68
2023/02/14 07:01:21;;;;;;;31.20;22.30;;;;;;;-0.09;100.00;98925.25;5065060;28;20208;-65
2023/02/14 07:03:49;;;;;;;30.53;22.83;;;;;;;-0.03;100.00;98926.69;5069641;28;20648;-67
2023/02/14 07:06:17;;;;;;;30.47;22.03;;;;;;;-0.02;100.00;98918.81;5064103;28;20217;-64
2023/02/14 07:08:44;;;;;;;35.20;23.23;;;;;;;-0.11;100.00;98921.88;5067773;28;20201;-64
2023/02/14 07:11:12;;;;;;;34.03;22.77;;;;;;;-0.25;100.00;98924.28;5067035;28;20202;-64
2023/02/14 07:13:39;;;;;;;31.00;21.50;;;;;;;-0.25;100.00;98913.84;5024664;28;21230;-65
2023/02/14 07:16:09;;;;;;;33.20;22.40;;;;;;;-0.08;100.00;98916.53;5063820;28;20229;-64
2023/02/14 07:18:36;;;;;;;35.00;22.23;;;;;;;-0.01;100.00;98914.44;5063002;28;20206;-66
2023/02/14 07:21:04;;;;;;;36.33;23.80;;;;;;;-0.02;100.00;98912.75;5068393;28;20213;-67
2023/02/14 07:23:32;;;;;;;33.33;23.77;;;;;;;-0.07;100.00;98905.19;5062132;28;20874;-66
2023/02/14 07:25:59;;;;;;;32.67;22.87;;;;;;;-0.08;100.00;98893.06;5067716;28;20194;-66
2023/02/14 07:28:29;;;;;;;34.90;24.43;;;;;;;-0.02;100.00;98911.00;5021085;28;20411;-63
2023/02/14 07:30:59;;;;;;;33.47;23.47;;;;;;;-0.10;100.00;98892.28;5065454;28;20566;-66
2023/02/14 07:33:28;;;;;;;38.60;24.67;;;;;;;-0.10;100.00;98904.47;5066227;28;20616;-64
2023/02/14 07:35:56;;;;;;;31.33;23.20;;;;;;;-0.10;100.00;98894.03;5065191;28;20228;-67
2023/02/14 07:38:24;;;;;;;33.60;22.87;;;;;;;-0.19;100.00;98897.94;5063325;28;20426;-65
2023/02/14 07:40:53;;;;;;;31.20;22.50;;;;;;;-0.19;100.00;98892.72;5067391;28;20221;-67
2023/02/14 07:43:21;;;;;;;39.17;24.63;;;;;;;-0.36;100.00;98894.38;5061279;28;20430;-65
2023/02/14 07:45:48;;;;;;;30.20;21.90;;;;;;;-0.25;100.00;98898.22;5017726;28;20209;-67
2023/02/14 07:48:16;;;;;;;35.10;23.97;;;;;;;-0.16;100.00;98897.81;5066245;28;20721;-65
2023/02/14 07:50:45;;;;;;;31.23;20.57;;;;;;;-0.23;100.00;98891.19;5066393;28;20819;-65
2023/02/14 07:53:12;;;;;;;33.37;21.77;;;;;;;-0.22;100.00;98896.34;5063989;28;20439;-65
2023/02/14 07:55:40;;;;;;;29.27;22.20;;;;;;;-0.13;100.00;98883.78;5066315;28;20717;-66
2023/02/14 07:58:08;;;;;;;29.70;21.10;;;;;;;0.03;100.00;98892.53;5066833;28;20198;-66
2023/02/14 08:00:35;;;;;;;32.90;22.77;;;;;;;0.05;100.00;98880.28;5016676;28;20483;-65
2023/02/14 08:03:03;;;;;;;37.57;23.13;;;;;;;0.05;100.00;98884.63;5068002;28;20390;-65
2023/02/14 08:05:31;;;;;;;28.57;20.67;;;;;;;0.22;100.00;98884.66;5064490;28;20198;-66
2023/02/14 08:07:59;;;;;;;29.67;22.60;;;;;;;0.27;100.00;98887.03;5068642;28;20194;-65
2023/02/14 08:10:27;;;;;;;32.40;23.03;;;;;;;-0.01;100.00;98888.38;5065081;28;20443;-66
2023/02/14 08:13:02;;;;;;;28.93;23.27;;;;;;;0.09;100.00;98888.78;5063192;28;20218;-67
2023/02/14 08:18:17;;;;;;;30.77;23.00;;;;;;;0.03;100.00;98892.53;5062997;28;20713;-65
2023/02/14 08:20:47;;;;;;;28.63;21.50;;;;;;;0.12;100.00;98894.69;5062800;28;20191;-65
2023/02/14 08:23:16;;;;;;;27.00;21.33;;;;;;;0.24;100.00;98890.63;5065718;28;20410;-65
2023/02/14 08:25:44;;;;;;;32.83;21.93;;;;;;;0.32;100.00;98894.63;5062594;28;20417;-67
2023/02/14 08:28:12;;;;;;;32.47;23.80;;;;;;;0.31;100.00;98898.16;5065957;28;20202;-64
2023/02/14 08:30:40;;;;;;;27.73;20.97;;;;;;;0.39;100.00;98902.06;5019496;28;21087;-66
2023/02/14 08:33:08;;;;;;;30.53;22.97;;;;;;;0.05;100.00;98889.84;5069832;28;20218;-65
2023/02/14 08:35:36;;;;;;;32.33;24.87;;;;;;;-0.11;100.00;98890.59;5067078;28;20231;-66
2023/02/14 08:38:04;;;;;;;29.97;23.07;;;;;;;0.05;100.00;98887.25;5073244;28;20210;-67
2023/02/14 08:40:33;;;;;;;29.67;22.80;;;;;;;0.10;100.00;98890.47;5068169;28;20206;-66
2023/02/14 08:43:01;;;;;;;30.80;22.20;;;;;;;0.20;100.00;98893.47;5071561;28;20253;-65
2023/02/14 08:45:29;;;;;;;25.90;19.60;;;;;;;0.18;100.00;98893.53;5020708;28;20568;-66
2023/02/14 08:48:00;;;;;;;29.30;21.70;;;;;;;0.25;100.00;98889.72;5069499;28;20199;-67
2023/02/14 08:50:29;;;;;;;26.57;19.50;;;;;;;0.16;100.00;98879.72;5063426;28;20674;-66
2023/02/14 08:52:57;;;;;;;30.00;21.77;;;;;;;0.02;100.00;98882.19;5068993;28;20229;-67
2023/02/14 08:55:24;;;;;;;31.77;23.40;;;;;;;0.04;100.00;98888.16;5067385;28;20257;-65
2023/02/14 08:57:55;;;;;;;30.43;23.87;;;;;;;0.02;100.00;98884.78;5070086;28;20533;-65
2023/02/14 09:00:23;;;;;;;28.73;20.53;;;;;;;-0.01;100.00;98885.78;5063368;28;20209;-65
2023/02/14 09:02:51;;;;;;;28.67;20.50;;;;;;;-0.02;100.00;98892.75;5028865;28;20253;-67
2023/02/14 09:05:19;;;;;;;28.03;20.07;;;;;;;0.01;100.00;98890.91;5068537;28;20202;-65
2023/02/14 09:07:47;;;;;;;30.07;21.67;;;;;;;0.20;100.00;98896.06;5068621;28;20210;-67
2023/02/14 09:10:15;;;;;;;28.50;21.03;;;;;;;0.19;100.00;98891.78;5065510;28;20274;-65
2023/02/14 09:12:43;;;;;;;31.80;20.17;;;;;;;0.08;100.00;98892.31;5068136;28;20218;-67
2023/02/14 09:15:12;;;;;;;33.27;22.07;;;;;;;-0.02;100.00;98879.72;5063189;28;20195;-66
2023/02/14 09:17:40;;;;;;;28.90;20.83;;;;;;;0.17;100.00;98891.84;5025523;28;22459;-67
2023/02/14 09:20:10;;;;;;;29.53;21.07;;;;;;;0.14;100.00;98884.16;5071212;28;20202;-64
2023/02/14 09:22:38;;;;;;;27.40;20.07;;;;;;;0.26;100.00;98887.94;5065856;28;21049;-66
2023/02/14 09:25:06;;;;;;;26.53;19.57;;;;;;;0.23;100.00;98888.94;5068890;28;20293;-67
2023/02/14 09:27:33;;;;;;;27.07;18.63;;;;;;;0.12;100.00;98891.22;5066614;28;20307;-66
2023/02/14 09:30:01;;;;;;;28.40;18.40;;;;;;;0.09;100.00;98891.38;5068756;28;20196;-67
2023/02/14 09:32:30;;;;;;;23.70;18.43;;;;;;;0.26;100.00;98887.94;5066136;28;20450;-65
2023/02/14 09:37:43;;;;;;;26.60;17.67;;;;;;;0.24;100.00;98882.81;5067063;28;20300;-67
2023/02/14 09:40:13;;;;;;;28.67;19.70;;;;;;;0.47;100.00;98886.00;5066807;28;20253;-65
2023/02/14 09:42:48;;;;;;;26.47;19.60;;;;;;;0.40;100.00;98887.25;5069365;28;20436;-67
2023/02/14 09:45:19;;;;;;;27.17;18.60;;;;;;;0.50;100.00;98880.63;5067296;28;20820;-65
2023/02/14 09:47:52;;;;;;;23.87;18.17;;;;;;;0.45;100.00;98887.84;5067686;28;20198;-67
2023/02/14 09:50:24;;;;;;;23.70;18.47;;;;;;;0.03;100.00;98876.06;5024745;28;20214;-64
2023/02/14 09:52:56;;;;;;;24.87;19.57;;;;;;;0.31;100.00;98891.16;5065618;28;20225;-63
2023/02/14 09:55:25;;;;;;;22.27;17.10;;;;;;;0.50;100.00;98877.19;5065315;28;20276;-64
2023/02/14 09:58:07;;;;;;;24.20;17.20;;;;;;;0.57;100.00;98875.97;5066977;28;20614;-67
2023/02/14 10:00:38;;;;;;;23.73;16.63;;;;;;;0.59;100.00;98878.50;5064731;28;20403;-65
2023/02/14 10:03:21;;;;;;;25.17;16.43;;;;;;;0.35;100.00;98871.81;5066447;28;20245;-66
2023/02/14 10:05:55;;;;;;;42.83;17.07;;;;;;;0.45;100.00;98866.16;5024952;28;20937;-64
2023/02/14 10:08:32;;;;;;;22.60;16.87;;;;;;;0.34;100.00;98871.91;5068031;28;20198;-63
2023/02/14 10:11:04;;;;;;;22.93;15.83;;;;;;;0.02;100.00;98870.00;5065214;28;20221;-65
2023/02/14 10:13:37;;;;;;;21.50;15.93;;;;;;;0.22;100.00;98875.97;5066273;28;20487;-65
2023/02/14 10:16:11;;;;;;;24.43;15.97;;;;;;;0.31;100.00;98885.94;5063024;28;20249;-65
2023/02/14 10:18:45;;;;;;;22.73;17.53;;;;;;;0.30;100.00;98876.44;5067688;28;20644;-65
2023/02/14 10:21:19;;;;;;;21.50;16.17;;;;;;;0.35;100.00;98881.44;5020714;28;20742;-64
2023/02/14 10:23:52;;;;;;;23.07;17.00;;;;;;;0.49;100.00;98878.13;5067024;28;20717;-66
2023/02/14 10:26:24;;;;;;;22.67;15.10;;;;;;;0.70;100.00;98877.00;5065457;28;20197;-64
2023/02/14 10:28:53;;;;;;;22.90;16.60;;;;;;;0.77;100.00;98879.31;5070524;28;20197;-65
2023/02/14 10:31:21;;;;;;;69.67;17.10;;;;;;;0.62;100.00;98883.56;5065283;28;20206;-63
2023/02/14 10:33:54;;;;;;;18.70;14.60;;;;;;;0.38;100.00;98884.75;5071028;28;20523;-66
2023/02/14 10:36:45;;;;;;;20.97;15.63;;;;;;;0.43;100.00;98867.09;5026073;28;20221;-64
2023/02/14 10:39:43;;;;;;;21.97;14.80;;;;;;;0.43;100.00;98869.69;5064010;28;20226;-64
2023/02/14 10:42:17;;;;;;;18.60;13.80;;;;;;;0.32;100.00;98863.34;5065093;28;20218;-64
2023/02/14 10:44:48;;;;;;;21.13;14.60;;;;;;;0.35;100.00;98868.38;5066616;28;20551;-64
2023/02/14 10:47:26;;;;;;;18.37;14.27;;;;;;;0.18;100.00;98871.84;5062394;28;20202;-63
2023/02/14 10:49:58;;;;;;;21.87;14.40;;;;;;;0.35;100.00;98857.97;5069112;28;20198;-65
2023/02/14 10:52:30;;;;;;;21.20;15.03;;;;;;;0.80;100.00;98863.50;5019882;28;20439;-64
2023/02/14 10:54:59;;;;;;;18.97;14.47;;;;;;;1.16;100.00;98854.63;5071089;28;20449;-66
2023/02/14 10:57:28;;;;;;;17.63;13.57;;;;;;;0.94;100.00;98854.91;5060162;28;20406;-65
2023/02/14 10:59:58;;;;;;;17.23;14.20;;;;;;;0.81;100.00;98849.53;5067851;28;20209;-64
2023/02/14 11:02:31;;;;;;;17.17;13.20;;;;;;;0.61;100.00;98846.19;5064867;28;20226;-63
2023/02/14 11:05:02;;;;;;;19.77;14.60;;;;;;;0.50;100.00;98845.91;5066480;28;20678;-64
2023/02/14 11:07:30;;;;;;;21.03;14.30;;;;;;;0.93;100.00;98845.41;5021812;28;20354;-65
2023/02/14 11:09:58;;;;;;;16.47;12.57;;;;;;;0.96;100.00;98842.66;5068212;28;20206;-66
2023/02/14 11:12:34;;;;;;;18.60;13.50;;;;;;;1.04;100.00;98842.22;5064408;28;20238;-64
2023/02/14 11:15:19;;;;;;;17.00;12.97;;;;;;;1.19;100.00;98836.19;5062443;28;20238;-65
2023/02/14 11:17:46;;;;;;;16.80;14.00;;;;;;;1.21;100.00;98833.47;5063642;28;20214;-65
2023/02/14 11:20:25;;;;;;;20.27;15.27;;;;;;;1.14;100.00;98833.81;5064403;28;20364;-64
2023/02/14 11:22:53;;;;;;;19.43;14.97;;;;;;;0.82;100.00;98835.56;5024318;28;20222;-63
2023/02/14 11:25:22;;;;;;;17.83;13.77;;;;;;;0.74;100.00;98835.94;5066474;28;20198;-64
2023/02/14 11:27:53;;;;;;;18.97;14.17;;;;;;;0.90;100.00;98822.06;5063821;28;20294;-66
2023/02/14 11:30:26;;;;;;;17.90;14.30;;;;;;;0.62;100.00;98818.34;5065826;28;20202;-63
2023/02/14 11:32:55;;;;;;;17.23;13.67;;;;;;;0.70;100.00;98831.81;5067789;28;20237;-65
2023/02/14 11:35:33;;;;;;;17.53;13.90;;;;;;;1.05;100.00;98812.56;5064931;28;20208;-63
2023/02/14 11:38:02;;;;;;;19.67;14.33;;;;;;;1.02;100.00;98818.81;5067478;28;20659;-65
2023/02/14 11:40:31;;;;;;;20.00;14.83;;;;;;;0.76;100.00;98807.16;5021386;28;20865;-65
2023/02/14 11:43:00;;;;;;;19.10;14.47;;;;;;;0.70;100.00;98801.34;5065910;28;20225;-64
2023/02/14 11:45:42;;;;;;;19.83;15.83;;;;;;;0.75;100.00;98805.47;5060454;28;20686;-65